createdAt,value
2022-10-31T00:00:59.534Z,40.55
2022-10-31T00:01:59.527Z,43.98
2022-10-31T00:02:59.855Z,44.32
2022-10-31T00:03:59.434Z,52.27
2022-10-31T00:04:59.430Z,55.44
2022-10-31T00:05:59.452Z,47.55
2022-10-31T00:06:59.413Z,44.11
2022-10-31T00:07:59.407Z,44.17
2022-10-31T00:08:59.393Z,44.34
2022-10-31T00:09:59.411Z,55.81
2022-10-31T00:10:59.418Z,47.91
2022-10-31T00:11:59.375Z,43.73
2022-10-31T00:12:59.767Z,42.99
2022-10-31T00:13:59.358Z,42.53
2022-10-31T00:14:59.356Z,45.10
2022-10-31T00:15:59.348Z,57.66
2022-10-31T00:16:59.365Z,55.02
2022-10-31T00:17:59.603Z,44.16
2022-10-31T00:18:59.328Z,47.59
2022-10-31T00:19:59.322Z,47.97
2022-10-31T00:20:59.309Z,49.58
2022-10-31T00:21:59.330Z,46.94
2022-10-31T00:22:59.295Z,43.19
2022-10-31T00:23:59.291Z,40.66
2022-10-31T00:24:59.315Z,39.73
2022-10-31T00:25:59.298Z,39.77
2022-10-31T00:26:59.269Z,46.75
2022-10-31T00:27:59.465Z,49.34
2022-10-31T00:28:59.252Z,43.55
2022-10-31T00:29:59.243Z,45.49
2022-10-31T00:30:59.261Z,39.80
2022-10-31T00:31:59.224Z,42.01
2022-10-31T00:32:59.673Z,40.69
2022-10-31T00:33:59.222Z,39.84
2022-10-31T00:34:59.203Z,39.88
2022-10-31T00:35:59.219Z,57.29
2022-10-31T00:36:59.185Z,41.79
2022-10-31T00:37:59.177Z,48.92
2022-10-31T00:38:59.173Z,47.33
2022-10-31T00:39:59.166Z,47.94
2022-10-31T00:40:59.187Z,53.30
2022-10-31T00:41:59.151Z,52.39
2022-10-31T00:42:59.502Z,44.72
2022-10-31T00:43:59.137Z,39.84
2022-10-31T00:44:59.149Z,39.98
2022-10-31T00:45:59.147Z,40.02
2022-10-31T00:46:59.112Z,44.16
2022-10-31T00:47:59.482Z,39.50
2022-10-31T00:48:59.102Z,51.80
2022-10-31T00:49:59.089Z,48.86
2022-10-31T00:50:59.102Z,44.77
2022-10-31T00:51:59.079Z,44.88
2022-10-31T00:52:59.063Z,43.14
2022-10-31T00:53:59.054Z,50.28
2022-10-31T00:54:59.056Z,49.23
2022-10-31T00:55:59.069Z,43.47
2022-10-31T00:56:59.035Z,40.55
2022-10-31T00:57:59.338Z,41.93
2022-10-31T00:58:59.020Z,51.76
2022-10-31T00:59:59.012Z,47.89
2022-10-31T01:00:59.118Z,55.90
2022-10-31T01:01:59.137Z,43.62
2022-10-31T01:02:59.171Z,40.08
2022-10-31T01:03:58.996Z,44.38
2022-10-31T01:04:59.013Z,45.10
2022-10-31T01:05:59.112Z,45.01
2022-10-31T01:06:58.960Z,39.60
2022-10-31T01:07:58.956Z,42.09
2022-10-31T01:08:58.949Z,56.22
2022-10-31T01:09:58.941Z,55.31
2022-10-31T01:10:58.970Z,55.82
2022-10-31T01:11:58.941Z,56.06
2022-10-31T01:12:59.329Z,56.12
2022-10-31T01:13:58.910Z,56.90
2022-10-31T01:14:58.903Z,56.41
2022-10-31T01:15:58.896Z,56.88
2022-10-31T01:16:58.914Z,56.07
2022-10-31T01:17:59.194Z,48.72
2022-10-31T01:18:58.877Z,42.13
2022-10-31T01:19:58.871Z,43.35
2022-10-31T01:20:58.864Z,46.04
2022-10-31T01:21:58.881Z,38.49
2022-10-31T01:22:58.846Z,41.19
2022-10-31T01:23:58.837Z,43.91
2022-10-31T01:24:58.832Z,47.79
2022-10-31T01:25:58.822Z,46.57
2022-10-31T01:26:58.843Z,40.16
2022-10-31T01:27:59.162Z,44.72
2022-10-31T01:28:58.801Z,44.85
2022-10-31T01:29:58.795Z,53.37
2022-10-31T01:30:58.816Z,52.77
2022-10-31T01:31:58.777Z,44.36
2022-10-31T01:32:59.373Z,48.08
2022-10-31T01:33:58.767Z,40.00
2022-10-31T01:34:58.760Z,46.11
2022-10-31T01:35:58.805Z,41.79
2022-10-31T01:36:58.742Z,46.36
2022-10-31T01:37:58.736Z,43.08
2022-10-31T01:38:58.731Z,40.55
2022-10-31T01:39:58.719Z,44.57
2022-10-31T01:40:58.742Z,46.36
2022-10-31T01:41:58.699Z,41.85
2022-10-31T01:42:58.983Z,41.07
2022-10-31T01:43:58.687Z,56.84
2022-10-31T01:45:33.054Z,43.59
2022-10-31T01:45:58.682Z,55.81
2022-10-31T01:46:58.695Z,55.81
2022-10-31T01:47:59.118Z,55.26
2022-10-31T01:48:58.659Z,55.21
2022-10-31T01:49:58.655Z,55.68
2022-10-31T01:50:58.637Z,58.98
2022-10-31T01:51:58.676Z,56.23
2022-10-31T01:52:58.630Z,55.81
2022-10-31T01:53:58.612Z,55.83
2022-10-31T01:54:58.612Z,56.11
2022-10-31T01:55:58.601Z,55.80
2022-10-31T01:56:58.662Z,55.99
2022-10-31T01:57:59.025Z,44.71
2022-10-31T01:58:58.582Z,37.25
2022-10-31T01:59:58.574Z,37.69
2022-10-31T02:01:00.548Z,44.69
2022-10-31T02:01:58.759Z,44.77
2022-10-31T02:02:58.903Z,40.68
2022-10-31T02:03:58.557Z,53.79
2022-10-31T02:04:58.541Z,46.10
2022-10-31T02:05:58.525Z,38.78
2022-10-31T02:06:58.574Z,43.74
2022-10-31T02:07:58.515Z,40.73
2022-10-31T02:08:58.506Z,42.49
2022-10-31T02:09:58.489Z,51.31
2022-10-31T02:10:58.495Z,40.40
2022-10-31T02:11:58.502Z,43.31
2022-10-31T02:12:58.760Z,55.21
2022-10-31T02:13:58.600Z,44.03
2022-10-31T02:14:58.448Z,44.96
2022-10-31T02:15:58.449Z,55.81
2022-10-31T02:16:58.462Z,49.38
2022-10-31T02:17:58.824Z,45.17
2022-10-31T02:18:58.428Z,40.23
2022-10-31T02:19:58.415Z,40.45
2022-10-31T02:20:58.440Z,45.21
2022-10-31T02:21:58.436Z,48.97
2022-10-31T02:22:58.399Z,44.91
2022-10-31T02:23:58.379Z,43.44
2022-10-31T02:24:58.381Z,45.09
2022-10-31T02:25:58.394Z,54.59
2022-10-31T02:26:58.365Z,43.26
2022-10-31T02:27:58.635Z,44.85
2022-10-31T02:28:58.348Z,45.20
2022-10-31T02:29:58.341Z,44.71
2022-10-31T02:30:58.357Z,49.93
2022-10-31T02:31:58.330Z,45.80
2022-10-31T02:32:58.564Z,42.98
2022-10-31T02:33:58.305Z,43.31
2022-10-31T02:34:58.302Z,39.77
2022-10-31T02:35:58.294Z,46.65
2022-10-31T02:36:58.318Z,41.05
2022-10-31T02:37:58.295Z,41.43
2022-10-31T02:38:58.265Z,45.17
2022-10-31T02:39:58.287Z,42.80
2022-10-31T02:40:58.293Z,43.21
2022-10-31T02:41:58.252Z,44.49
2022-10-31T02:42:58.758Z,45.75
2022-10-31T02:43:58.236Z,40.14
2022-10-31T02:44:58.246Z,40.30
2022-10-31T02:45:58.251Z,47.06
2022-10-31T02:46:58.212Z,41.67
2022-10-31T02:47:58.422Z,45.63
2022-10-31T02:48:58.195Z,43.62
2022-10-31T02:49:58.194Z,40.57
2022-10-31T02:50:58.199Z,42.19
2022-10-31T02:51:58.199Z,39.47
2022-10-31T02:52:58.159Z,39.84
2022-10-31T02:53:58.171Z,45.73
2022-10-31T02:54:58.146Z,39.73
2022-10-31T02:55:58.143Z,43.62
2022-10-31T02:56:58.166Z,50.89
2022-10-31T02:57:58.641Z,51.95
2022-10-31T02:58:58.132Z,55.20
2022-10-31T02:59:58.115Z,50.62
2022-10-31T03:00:58.147Z,41.58
2022-10-31T03:01:58.227Z,45.82
2022-10-31T03:02:58.594Z,46.38
2022-10-31T03:03:58.077Z,52.68
2022-10-31T03:04:58.068Z,45.19
2022-10-31T03:05:58.107Z,51.95
2022-10-31T03:06:58.071Z,52.87
2022-10-31T03:07:58.056Z,48.84
2022-10-31T03:08:58.041Z,56.70
2022-10-31T03:09:58.040Z,55.90
2022-10-31T03:10:58.028Z,58.19
2022-10-31T03:11:58.059Z,58.32
2022-10-31T03:12:58.017Z,59.71
2022-10-31T03:13:58.006Z,60.78
2022-10-31T03:14:58.006Z,58.78
2022-10-31T03:15:58.016Z,58.07
2022-10-31T03:16:58.008Z,58.53
2022-10-31T03:17:58.179Z,58.42
2022-10-31T03:18:57.964Z,62.44
2022-10-31T03:19:57.962Z,59.39
2022-10-31T03:20:57.974Z,58.64
2022-10-31T03:21:57.988Z,58.38
2022-10-31T03:22:57.953Z,58.69
2022-10-31T03:23:57.935Z,58.71
2022-10-31T03:24:57.926Z,62.07
2022-10-31T03:25:57.920Z,57.24
2022-10-31T03:26:57.947Z,58.01
2022-10-31T03:27:58.459Z,62.89
2022-10-31T03:28:57.905Z,61.17
2022-10-31T03:29:57.907Z,58.18
2022-10-31T03:30:57.883Z,58.42
2022-10-31T03:31:57.913Z,57.55
2022-10-31T03:32:58.217Z,46.92
2022-10-31T03:33:57.869Z,47.04
2022-10-31T03:34:57.861Z,45.57
2022-10-31T03:35:57.850Z,47.15
2022-10-31T03:36:57.860Z,46.36
2022-10-31T03:37:57.836Z,50.29
2022-10-31T03:38:57.847Z,49.77
2022-10-31T03:39:57.830Z,49.63
2022-10-31T03:40:57.812Z,47.86
2022-10-31T03:41:57.829Z,44.11
2022-10-31T03:42:58.180Z,52.62
2022-10-31T03:43:57.796Z,49.56
2022-10-31T03:44:57.776Z,57.86
2022-10-31T03:45:57.785Z,47.54
2022-10-31T03:46:57.786Z,49.75
2022-10-31T03:47:58.023Z,47.47
2022-10-31T03:48:57.744Z,47.60
2022-10-31T03:49:57.740Z,50.75
2022-10-31T03:50:57.747Z,46.71
2022-10-31T03:51:57.760Z,50.43
2022-10-31T03:52:57.714Z,54.00
2022-10-31T03:53:57.716Z,46.66
2022-10-31T03:54:57.705Z,48.67
2022-10-31T03:55:57.701Z,46.43
2022-10-31T03:56:57.713Z,51.37
2022-10-31T03:57:58.105Z,49.65
2022-10-31T03:58:57.674Z,53.23
2022-10-31T03:59:57.684Z,56.10
2022-10-31T04:00:57.713Z,56.90
2022-10-31T04:01:57.843Z,53.53
2022-10-31T04:02:57.946Z,53.78
2022-10-31T04:03:57.642Z,53.00
2022-10-31T04:04:57.627Z,52.10
2022-10-31T04:05:57.623Z,52.41
2022-10-31T04:06:57.637Z,61.78
2022-10-31T04:07:57.597Z,52.17
2022-10-31T04:08:58.632Z,48.13
2022-10-31T04:09:57.591Z,54.48
2022-10-31T04:10:57.587Z,56.03
2022-10-31T04:11:57.626Z,49.25
2022-10-31T04:12:57.930Z,52.38
2022-10-31T04:13:57.554Z,49.87
2022-10-31T04:14:57.550Z,51.25
2022-10-31T04:15:57.549Z,53.81
2022-10-31T04:16:57.594Z,49.64
2022-10-31T04:17:57.851Z,54.86
2022-10-31T04:18:57.530Z,50.23
2022-10-31T04:19:57.651Z,51.86
2022-10-31T04:20:57.499Z,53.74
2022-10-31T04:21:57.543Z,51.72
2022-10-31T04:22:57.495Z,57.90
2022-10-31T04:23:57.493Z,50.73
2022-10-31T04:24:57.466Z,52.50
2022-10-31T04:25:57.463Z,49.24
2022-10-31T04:26:57.481Z,61.61
2022-10-31T04:27:57.860Z,52.64
2022-10-31T04:28:57.441Z,55.29
2022-10-31T04:29:57.430Z,54.68
2022-10-31T04:30:57.423Z,55.07
2022-10-31T04:31:57.435Z,54.85
2022-10-31T04:32:57.701Z,48.66
2022-10-31T04:33:57.402Z,54.75
2022-10-31T04:34:57.392Z,54.19
2022-10-31T04:35:57.383Z,56.88
2022-10-31T04:36:57.407Z,55.12
2022-10-31T04:37:57.366Z,56.02
2022-10-31T04:38:57.374Z,55.72
2022-10-31T04:39:57.372Z,57.84
2022-10-31T04:40:57.354Z,55.57
2022-10-31T04:41:57.365Z,55.90
2022-10-31T04:42:57.522Z,54.48
2022-10-31T04:43:57.322Z,52.18
2022-10-31T04:44:57.350Z,56.00
2022-10-31T04:45:57.322Z,58.53
2022-10-31T04:46:57.331Z,60.35
2022-10-31T04:47:57.532Z,60.91
2022-10-31T04:48:57.284Z,59.17
2022-10-31T04:49:57.275Z,59.62
2022-10-31T04:50:57.273Z,58.38
2022-10-31T04:51:57.312Z,58.55
2022-10-31T04:52:57.285Z,58.91
2022-10-31T04:53:57.251Z,60.02
2022-10-31T04:54:57.246Z,60.74
2022-10-31T04:55:57.228Z,61.47
2022-10-31T04:56:57.244Z,59.24
2022-10-31T04:57:57.408Z,60.31
2022-10-31T04:58:57.204Z,59.64
2022-10-31T04:59:57.197Z,59.59
2022-10-31T05:00:57.266Z,59.91
2022-10-31T05:01:57.363Z,60.05
2022-10-31T05:02:57.391Z,60.33
2022-10-31T05:03:57.166Z,59.16
2022-10-31T05:04:57.152Z,61.80
2022-10-31T05:05:57.171Z,59.38
2022-10-31T05:06:57.165Z,59.77
2022-10-31T05:07:57.141Z,60.02
2022-10-31T05:08:57.135Z,54.99
2022-10-31T05:09:57.122Z,55.29
2022-10-31T05:11:01.554Z,56.10
2022-10-31T05:11:58.150Z,53.64
2022-10-31T05:12:57.364Z,56.90
2022-10-31T05:13:57.094Z,56.84
2022-10-31T05:14:57.083Z,54.85
2022-10-31T05:15:57.075Z,57.35
2022-10-31T05:16:57.117Z,55.63
2022-10-31T05:17:57.372Z,55.22
2022-10-31T05:18:57.053Z,56.30
2022-10-31T05:19:57.081Z,53.87
2022-10-31T05:20:57.042Z,52.83
2022-10-31T05:21:57.061Z,56.99
2022-10-31T05:22:57.010Z,58.99
2022-10-31T05:23:57.018Z,57.69
2022-10-31T05:24:57.011Z,60.15
2022-10-31T05:25:56.994Z,58.77
2022-10-31T05:26:57.032Z,57.92
2022-10-31T05:27:57.234Z,57.87
2022-10-31T05:28:56.975Z,57.57
2022-10-31T05:29:57.041Z,59.06
2022-10-31T05:30:56.950Z,58.89
2022-10-31T05:31:56.976Z,57.17
2022-10-31T05:32:57.205Z,55.46
2022-10-31T05:33:56.948Z,56.74
2022-10-31T05:34:56.966Z,56.61
2022-10-31T05:35:56.926Z,55.88
2022-10-31T05:36:56.950Z,56.32
2022-10-31T05:37:56.899Z,61.26
2022-10-31T05:38:56.907Z,52.42
2022-10-31T05:39:56.928Z,58.62
2022-10-31T05:40:56.873Z,58.54
2022-10-31T05:41:56.904Z,58.10
2022-10-31T05:42:57.157Z,54.80
2022-10-31T05:43:56.919Z,58.67
2022-10-31T05:44:56.862Z,57.46
2022-10-31T05:45:56.859Z,57.84
2022-10-31T05:46:56.892Z,58.17
2022-10-31T05:47:57.098Z,56.63
2022-10-31T05:49:00.218Z,57.66
2022-10-31T05:49:58.815Z,57.14
2022-10-31T05:50:56.857Z,56.80
2022-10-31T05:51:56.830Z,56.91
2022-10-31T05:52:56.804Z,57.00
2022-10-31T05:53:56.790Z,58.14
2022-10-31T05:54:56.775Z,59.37
2022-10-31T05:55:56.775Z,58.90
2022-10-31T05:56:56.789Z,56.35
2022-10-31T05:57:56.898Z,58.48
2022-10-31T05:58:56.750Z,58.69
2022-10-31T05:59:56.748Z,58.56
2022-10-31T06:00:56.730Z,56.49
2022-10-31T06:01:56.855Z,54.62
2022-10-31T06:02:56.804Z,57.48
2022-10-31T06:03:56.737Z,57.66
2022-10-31T06:04:56.781Z,57.67
2022-10-31T06:05:56.701Z,61.12
2022-10-31T06:06:56.715Z,56.75
2022-10-31T06:07:56.923Z,53.58
2022-10-31T06:08:57.685Z,57.68
2022-10-31T06:09:56.670Z,55.22
2022-10-31T06:10:56.686Z,59.86
2022-10-31T06:11:56.709Z,59.99
2022-10-31T06:12:56.673Z,59.68
2022-10-31T06:13:56.641Z,60.12
2022-10-31T06:14:56.620Z,59.49
2022-10-31T06:15:56.621Z,58.00
2022-10-31T06:16:56.692Z,59.46
2022-10-31T06:17:56.724Z,59.91
2022-10-31T06:18:56.593Z,58.67
2022-10-31T06:19:56.587Z,59.69
2022-10-31T06:20:56.612Z,59.61
2022-10-31T06:21:56.597Z,60.46
2022-10-31T06:22:56.791Z,58.84
2022-10-31T06:23:56.564Z,58.65
2022-10-31T06:24:56.576Z,58.57
2022-10-31T06:25:56.546Z,59.33
2022-10-31T06:26:56.629Z,59.33
2022-10-31T06:27:56.845Z,59.45
2022-10-31T06:29:00.032Z,51.82
2022-10-31T06:29:57.520Z,57.58
2022-10-31T06:30:56.525Z,57.38
2022-10-31T06:31:56.495Z,53.02
2022-10-31T06:32:56.536Z,52.26
2022-10-31T06:33:56.489Z,57.31
2022-10-31T06:34:56.481Z,58.50
2022-10-31T06:35:56.471Z,56.87
2022-10-31T06:36:56.466Z,55.71
2022-10-31T06:37:56.498Z,57.37
2022-10-31T06:38:56.481Z,51.69
2022-10-31T06:39:56.439Z,53.59
2022-10-31T06:40:56.440Z,54.72
2022-10-31T06:41:56.425Z,55.18
2022-10-31T06:42:56.439Z,54.77
2022-10-31T06:43:56.419Z,55.79
2022-10-31T06:44:56.431Z,54.27
2022-10-31T06:45:56.425Z,56.46
2022-10-31T06:46:56.386Z,56.80
2022-10-31T06:48:15.893Z,54.75
2022-10-31T06:48:58.364Z,53.58
2022-10-31T06:49:56.394Z,53.45
2022-10-31T06:50:59.614Z,51.34
2022-10-31T06:51:57.336Z,51.39
2022-10-31T06:52:56.445Z,49.85
2022-10-31T06:53:56.338Z,58.87
2022-10-31T06:54:56.339Z,58.53
2022-10-31T06:55:56.313Z,55.83
2022-10-31T06:56:56.309Z,56.96
2022-10-31T06:57:58.873Z,53.66
2022-10-31T06:58:57.301Z,50.40
2022-10-31T06:59:56.387Z,54.77
2022-10-31T07:00:56.324Z,55.05
2022-10-31T07:01:56.523Z,54.21
2022-10-31T07:02:56.512Z,55.53
2022-10-31T07:03:56.280Z,56.29
2022-10-31T07:04:56.264Z,58.25
2022-10-31T07:05:56.256Z,56.04
2022-10-31T07:06:56.246Z,57.07
2022-10-31T07:07:56.249Z,55.52
2022-10-31T07:08:56.212Z,57.19
2022-10-31T07:09:56.210Z,54.82
2022-10-31T07:10:56.249Z,56.74
2022-10-31T07:11:56.196Z,57.81
2022-10-31T07:12:56.339Z,54.24
2022-10-31T07:13:56.176Z,56.50
2022-10-31T07:14:56.163Z,54.54
2022-10-31T07:15:56.160Z,51.94
2022-10-31T07:16:56.155Z,55.05
2022-10-31T07:17:56.185Z,55.81
2022-10-31T07:18:56.174Z,57.53
2022-10-31T07:19:56.136Z,54.76
2022-10-31T07:20:56.117Z,56.86
2022-10-31T07:21:56.121Z,58.07
2022-10-31T07:22:56.158Z,56.17
2022-10-31T07:23:56.089Z,57.70
2022-10-31T07:24:56.121Z,57.46
2022-10-31T07:25:56.107Z,55.69
2022-10-31T07:26:56.124Z,57.66
2022-10-31T07:27:56.124Z,55.63
2022-10-31T07:28:56.207Z,55.39
2022-10-31T07:29:56.071Z,56.38
2022-10-31T07:30:56.070Z,59.24
2022-10-31T07:31:56.039Z,55.72
2022-10-31T07:32:56.074Z,53.78
2022-10-31T07:33:56.020Z,57.68
2022-10-31T07:34:56.019Z,56.71
2022-10-31T07:35:56.005Z,54.00
2022-10-31T07:36:56.000Z,49.81
2022-10-31T07:37:56.038Z,55.76
2022-10-31T07:38:56.013Z,57.12
2022-10-31T07:39:55.972Z,55.37
2022-10-31T07:40:55.984Z,52.11
2022-10-31T07:41:55.967Z,61.01
2022-10-31T07:42:56.009Z,56.96
2022-10-31T07:43:55.959Z,56.58
2022-10-31T07:44:57.703Z,57.11
2022-10-31T07:46:30.152Z,58.67
2022-10-31T07:46:55.924Z,59.87
2022-10-31T07:47:55.911Z,59.33
2022-10-31T07:48:55.939Z,60.34
2022-10-31T07:49:55.907Z,60.20
2022-10-31T07:50:55.888Z,60.01
2022-10-31T07:51:55.889Z,59.52
2022-10-31T07:52:55.890Z,60.03
2022-10-31T07:53:55.910Z,60.94
2022-10-31T07:54:55.859Z,59.36
2022-10-31T07:55:55.843Z,59.68
2022-10-31T07:56:56.883Z,58.78
2022-10-31T07:57:55.858Z,59.46
2022-10-31T07:58:55.859Z,61.11
2022-10-31T07:59:55.819Z,52.88
2022-10-31T08:00:55.910Z,55.84
2022-10-31T08:01:55.829Z,57.71
2022-10-31T08:02:55.801Z,55.02
2022-10-31T08:03:55.818Z,56.61
2022-10-31T08:04:58.582Z,55.24
2022-10-31T08:05:56.774Z,58.76
2022-10-31T08:06:55.832Z,57.38
2022-10-31T08:07:55.759Z,58.61
2022-10-31T08:08:55.775Z,59.12
2022-10-31T08:09:55.746Z,55.08
2022-10-31T08:10:55.767Z,57.23
2022-10-31T08:11:55.756Z,55.94
2022-10-31T08:12:55.777Z,56.44
2022-10-31T08:13:55.717Z,53.82
2022-10-31T08:14:55.701Z,58.24
2022-10-31T08:15:55.693Z,56.80
2022-10-31T08:16:55.689Z,56.31
2022-10-31T08:17:55.731Z,57.48
2022-10-31T08:18:55.678Z,57.69
2022-10-31T08:19:55.670Z,54.45
2022-10-31T08:20:55.663Z,57.50
2022-10-31T08:21:55.657Z,57.84
2022-10-31T08:22:55.676Z,55.44
2022-10-31T08:23:55.639Z,52.91
2022-10-31T08:24:55.638Z,54.83
2022-10-31T08:25:55.630Z,57.83
2022-10-31T08:26:55.614Z,57.81
2022-10-31T08:27:55.639Z,55.26
2022-10-31T08:28:55.715Z,56.25
2022-10-31T08:29:55.591Z,57.46
2022-10-31T08:30:55.592Z,56.78
2022-10-31T08:31:55.587Z,54.16
2022-10-31T08:32:55.569Z,54.75
2022-10-31T08:33:55.602Z,59.16
2022-10-31T08:34:55.556Z,56.63
2022-10-31T08:35:55.563Z,57.26
2022-10-31T08:36:55.552Z,56.58
2022-10-31T08:37:55.539Z,57.81
2022-10-31T08:39:00.656Z,57.51
2022-10-31T08:39:57.535Z,57.44
2022-10-31T08:40:55.548Z,58.56
2022-10-31T08:41:55.512Z,56.75
2022-10-31T08:42:55.506Z,57.81
2022-10-31T08:43:55.523Z,58.01
2022-10-31T08:44:55.531Z,55.71
2022-10-31T08:45:55.485Z,58.13
2022-10-31T08:46:55.488Z,58.58
2022-10-31T08:47:55.465Z,57.96
2022-10-31T08:48:55.481Z,54.50
2022-10-31T08:49:55.471Z,57.07
2022-10-31T08:50:55.445Z,56.05
2022-10-31T08:51:55.447Z,57.15
2022-10-31T08:53:06.671Z,55.21
2022-10-31T08:53:57.422Z,56.01
2022-10-31T08:54:55.413Z,56.34
2022-10-31T08:55:55.416Z,58.20
2022-10-31T08:56:55.416Z,56.99
2022-10-31T08:57:55.423Z,55.41
2022-10-31T08:58:55.387Z,57.43
2022-10-31T08:59:55.373Z,58.62
2022-10-31T09:00:55.433Z,52.82
2022-10-31T09:01:55.456Z,56.03
2022-10-31T09:02:55.348Z,57.65
2022-10-31T09:03:55.374Z,56.32
2022-10-31T09:04:55.349Z,58.37
2022-10-31T09:05:55.383Z,55.27
2022-10-31T09:07:20.097Z,55.51
2022-10-31T09:07:59.980Z,55.11
2022-10-31T09:08:56.330Z,56.26
2022-10-31T09:09:55.294Z,54.84
2022-10-31T09:10:55.285Z,57.58
2022-10-31T09:11:55.287Z,57.30
2022-10-31T09:12:55.265Z,57.13
2022-10-31T09:13:55.332Z,54.56
2022-10-31T09:14:55.262Z,56.15
2022-10-31T09:15:55.268Z,54.57
2022-10-31T09:16:55.251Z,54.90
2022-10-31T09:17:55.232Z,57.04
2022-10-31T09:18:55.318Z,55.88
2022-10-31T09:19:55.218Z,54.13
2022-10-31T09:20:55.209Z,57.62
2022-10-31T09:21:55.212Z,55.90
2022-10-31T09:22:55.236Z,55.13
2022-10-31T09:23:55.209Z,59.02
2022-10-31T09:24:55.231Z,58.72
2022-10-31T09:25:55.204Z,55.32
2022-10-31T09:26:55.164Z,55.98
2022-10-31T09:27:55.186Z,56.93
2022-10-31T09:28:55.169Z,58.06
2022-10-31T09:29:55.145Z,54.01
2022-10-31T09:30:55.142Z,57.45
2022-10-31T09:31:55.121Z,57.84
2022-10-31T09:32:55.115Z,57.07
2022-10-31T09:33:55.145Z,56.71
2022-10-31T09:34:55.101Z,55.37
2022-10-31T09:35:55.118Z,56.59
2022-10-31T09:36:55.102Z,54.55
2022-10-31T09:37:55.077Z,57.79
2022-10-31T09:38:55.108Z,57.12
2022-10-31T09:39:55.073Z,56.98
2022-10-31T09:40:55.060Z,56.79
2022-10-31T09:41:57.222Z,56.00
2022-10-31T09:42:55.043Z,56.05
2022-10-31T09:43:55.156Z,55.06
2022-10-31T09:44:55.029Z,54.69
2022-10-31T09:45:55.023Z,53.74
2022-10-31T09:46:55.014Z,56.37
2022-10-31T09:47:55.006Z,55.88
2022-10-31T09:48:55.023Z,58.11
2022-10-31T09:49:55.045Z,55.53
2022-10-31T09:50:54.993Z,56.58
2022-10-31T09:51:54.976Z,56.25
2022-10-31T09:52:54.967Z,57.40
2022-10-31T09:53:54.983Z,56.53
2022-10-31T09:54:54.960Z,53.77
2022-10-31T09:55:54.972Z,57.97
2022-10-31T09:56:54.940Z,58.04
2022-10-31T09:57:54.935Z,58.55
2022-10-31T09:58:54.968Z,56.54
2022-10-31T09:59:54.922Z,56.05
2022-10-31T10:00:54.937Z,56.75
2022-10-31T10:01:54.974Z,56.09
2022-10-31T10:02:54.897Z,54.35
2022-10-31T10:03:54.916Z,62.68
2022-10-31T10:04:54.882Z,58.61
2022-10-31T10:05:54.889Z,57.05
2022-10-31T10:06:54.877Z,54.78
2022-10-31T10:07:54.856Z,55.74
2022-10-31T10:08:54.876Z,56.49
2022-10-31T10:09:55.851Z,55.85
2022-10-31T10:10:54.833Z,54.23
2022-10-31T10:11:54.832Z,57.00
2022-10-31T10:12:54.815Z,53.98
2022-10-31T10:13:55.860Z,59.99
2022-10-31T10:14:54.800Z,58.50
2022-10-31T10:15:54.794Z,56.46
2022-10-31T10:16:54.785Z,58.49
2022-10-31T10:17:54.782Z,58.64
2022-10-31T10:18:54.800Z,58.52
2022-10-31T10:19:54.764Z,57.57
2022-10-31T10:20:54.761Z,57.02
2022-10-31T10:21:54.752Z,59.12
2022-10-31T10:22:54.745Z,53.86
2022-10-31T10:23:54.738Z,58.29
2022-10-31T10:24:54.773Z,54.56
2022-10-31T10:25:54.770Z,56.84
2022-10-31T10:26:54.713Z,57.99
2022-10-31T10:27:54.707Z,57.56
2022-10-31T10:28:54.697Z,58.59
2022-10-31T10:29:54.737Z,58.14
2022-10-31T10:30:54.681Z,55.21
2022-10-31T10:31:54.668Z,55.49
2022-10-31T10:32:54.675Z,56.64
2022-10-31T10:33:54.656Z,54.49
2022-10-31T10:34:54.669Z,55.72
2022-10-31T10:35:54.639Z,56.30
2022-10-31T10:36:54.633Z,52.15
2022-10-31T10:37:54.629Z,56.37
2022-10-31T10:38:54.624Z,53.16
2022-10-31T10:39:54.633Z,55.52
2022-10-31T10:40:54.600Z,57.36
2022-10-31T10:41:54.605Z,57.47
2022-10-31T10:42:54.596Z,56.87
2022-10-31T10:43:54.589Z,57.44
2022-10-31T10:44:54.608Z,53.37
2022-10-31T10:45:54.572Z,56.61
2022-10-31T10:46:54.557Z,57.04
2022-10-31T10:47:54.544Z,56.24
2022-10-31T10:48:54.535Z,53.86
2022-10-31T10:49:55.562Z,56.94
2022-10-31T10:50:54.530Z,55.54
2022-10-31T10:52:07.415Z,56.45
2022-10-31T10:52:56.520Z,55.18
2022-10-31T10:53:54.504Z,54.94
2022-10-31T10:54:54.536Z,56.04
2022-10-31T10:55:54.516Z,56.96
2022-10-31T10:56:54.487Z,57.89
2022-10-31T10:57:54.473Z,55.38
2022-10-31T10:58:54.472Z,57.17
2022-10-31T10:59:54.483Z,57.61
2022-10-31T11:00:54.555Z,55.35
2022-10-31T11:01:54.447Z,56.12
2022-10-31T11:02:54.437Z,54.12
2022-10-31T11:03:54.436Z,57.30
2022-10-31T11:04:54.504Z,56.41
2022-10-31T11:05:54.417Z,58.72
2022-10-31T11:06:54.409Z,54.25
2022-10-31T11:07:54.411Z,52.80
2022-10-31T11:08:54.417Z,54.82
2022-10-31T11:09:54.478Z,55.20
2022-10-31T11:10:54.374Z,53.72
2022-10-31T11:11:54.391Z,53.97
2022-10-31T11:12:54.363Z,55.17
2022-10-31T11:13:54.371Z,57.59
2022-10-31T11:14:54.381Z,56.11
2022-10-31T11:15:54.363Z,58.29
2022-10-31T11:16:54.326Z,55.49
2022-10-31T11:17:54.320Z,57.94
2022-10-31T11:18:54.313Z,60.29
2022-10-31T11:19:54.333Z,55.72
2022-10-31T11:20:54.309Z,54.32
2022-10-31T11:21:54.529Z,57.63
2022-10-31T11:22:54.296Z,57.78
2022-10-31T11:23:54.279Z,58.48
2022-10-31T11:24:54.314Z,56.61
2022-10-31T11:25:54.265Z,54.53
2022-10-31T11:26:54.254Z,56.02
2022-10-31T11:27:54.247Z,54.41
2022-10-31T11:28:54.233Z,58.24
2022-10-31T11:29:58.299Z,56.52
2022-10-31T11:30:56.232Z,56.79
2022-10-31T11:31:54.223Z,54.87
2022-10-31T11:32:54.233Z,56.52
2022-10-31T11:33:54.200Z,57.57
2022-10-31T11:34:54.217Z,56.41
2022-10-31T11:35:57.013Z,56.27
2022-10-31T11:36:54.177Z,55.79
2022-10-31T11:37:54.183Z,60.26
2022-10-31T11:38:54.158Z,56.04
2022-10-31T11:39:54.542Z,56.98
2022-10-31T11:40:54.148Z,56.37
2022-10-31T11:41:54.139Z,58.85
2022-10-31T11:42:54.144Z,55.47
2022-10-31T11:43:54.122Z,57.86
2022-10-31T11:44:54.484Z,57.59
2022-10-31T11:45:54.106Z,52.86
2022-10-31T11:46:54.089Z,54.40
2022-10-31T11:47:59.160Z,57.15
2022-10-31T11:48:55.129Z,58.00
2022-10-31T11:49:54.710Z,56.86
2022-10-31T11:50:54.072Z,57.20
2022-10-31T11:51:54.079Z,56.55
2022-10-31T11:53:56.949Z,57.09
2022-10-31T11:54:56.063Z,57.91
2022-10-31T11:55:54.031Z,55.66
2022-10-31T11:56:54.027Z,55.69
2022-10-31T11:57:54.024Z,56.10
2022-10-31T11:58:54.007Z,55.75
2022-10-31T11:59:54.000Z,57.78
2022-10-31T12:00:54.469Z,58.08
2022-10-31T12:01:54.097Z,55.62
2022-10-31T12:02:54.068Z,57.36
2022-10-31T12:03:53.969Z,54.32
2022-10-31T12:04:53.969Z,55.83
2022-10-31T12:05:53.975Z,58.14
2022-10-31T12:06:53.940Z,55.29
2022-10-31T12:07:54.005Z,57.87
2022-10-31T12:08:53.931Z,56.59
2022-10-31T12:09:53.931Z,57.07
2022-10-31T12:10:53.955Z,55.39
2022-10-31T12:11:53.905Z,56.15
2022-10-31T12:12:53.897Z,57.85
2022-10-31T12:13:53.890Z,56.73
2022-10-31T12:14:53.890Z,58.55
2022-10-31T12:15:53.909Z,57.19
2022-10-31T12:16:53.875Z,56.38
2022-10-31T12:17:53.909Z,55.64
2022-10-31T12:18:53.863Z,57.33
2022-10-31T12:19:55.419Z,57.68
2022-10-31T12:20:54.880Z,57.47
2022-10-31T12:21:53.831Z,58.42
2022-10-31T12:22:53.824Z,59.82
2022-10-31T12:23:53.819Z,58.36
2022-10-31T12:24:53.834Z,57.09
2022-10-31T12:25:53.842Z,54.67
2022-10-31T12:26:53.811Z,57.42
2022-10-31T12:27:53.803Z,57.96
2022-10-31T12:28:55.448Z,59.39
2022-10-31T12:29:54.777Z,55.15
2022-10-31T12:30:53.834Z,55.34
2022-10-31T12:31:53.760Z,54.64
2022-10-31T12:32:53.751Z,56.00
2022-10-31T12:33:53.756Z,58.52
2022-10-31T12:34:53.746Z,55.74
2022-10-31T12:35:53.760Z,58.18
2022-10-31T12:36:53.813Z,56.19
2022-10-31T12:37:53.724Z,57.00
2022-10-31T12:38:53.716Z,55.51
2022-10-31T12:39:53.693Z,57.80
2022-10-31T12:40:53.734Z,57.02
2022-10-31T12:41:53.682Z,56.87
2022-10-31T12:42:53.676Z,53.76
2022-10-31T12:43:53.671Z,57.43
2022-10-31T12:44:53.666Z,56.11
2022-10-31T12:45:53.653Z,58.57
2022-10-31T12:46:53.671Z,53.20
2022-10-31T12:47:53.633Z,56.58
2022-10-31T12:48:57.171Z,54.49
2022-10-31T12:49:53.644Z,56.21
2022-10-31T12:50:53.666Z,57.02
2022-10-31T12:51:53.667Z,56.09
2022-10-31T12:52:53.612Z,51.41
2022-10-31T12:53:53.613Z,53.78